Time;durP1;ratioP1;P1;durP2;ratioP2;P2;SDS_P1;SDS_P2;PMS_P1;PMS_P2;Temp;Humidity;BMP_temperature;BMP_pressure;BME280_temperature;BME280_humidity;BME280_pressure;Samples;Min_cycle;Max_cycle;Signal;HPM_P1;HPM_P2
2023/01/22 00:01:15;;;;;;;0.10;0.10;;;1.20;99.90;12.80;163505.00;;;;5012343;28;20601;-77
2023/01/22 00:03:43;;;;;;;0.10;0.10;;;1.20;99.90;12.80;163505.00;;;;5015879;28;20199;-77
2023/01/22 00:06:14;;;;;;;0.10;0.10;;;1.20;99.90;12.80;163505.00;;;;5016171;28;20187;-77
2023/01/22 00:08:43;;;;;;;0.10;0.10;;;1.10;99.90;12.80;163505.00;;;;4993572;28;20804;-77
2023/01/22 00:11:11;;;;;;;0.10;0.10;;;1.10;99.90;12.80;163505.00;;;;5011442;28;20203;-76
2023/01/22 00:13:40;;;;;;;0.10;0.10;;;1.20;99.90;12.80;163505.00;;;;5011736;28;20246;-76
2023/01/22 00:16:10;;;;;;;0.10;0.10;;;1.20;99.90;12.80;163505.00;;;;5014175;28;20571;-77
2023/01/22 00:18:39;;;;;;;0.13;0.13;;;1.20;99.90;12.80;163505.00;;;;5005482;28;20234;-77
2023/01/22 00:21:08;;;;;;;0.10;0.10;;;1.20;99.90;12.80;163505.00;;;;5013109;28;20207;-77
2023/01/22 00:23:37;;;;;;;0.20;0.20;;;1.20;99.90;12.80;163505.00;;;;4994233;28;20207;-77
2023/01/22 00:26:09;;;;;;;0.20;0.20;;;1.20;99.90;12.80;163505.00;;;;5000610;28;20644;-76
2023/01/22 00:28:40;;;;;;;0.10;0.10;;;1.20;99.90;12.80;163505.00;;;;5011883;28;20220;-79
2023/01/22 00:31:11;;;;;;;0.10;0.10;;;1.20;99.90;12.80;163505.00;;;;4999528;28;20250;-77
2023/01/22 00:33:43;;;;;;;0.20;0.20;;;1.20;99.90;12.80;163505.00;;;;5012043;28;20287;-76
2023/01/22 00:36:15;;;;;;;0.10;0.10;;;1.20;99.90;12.80;163505.00;;;;5017718;28;20215;-76
2023/01/22 00:38:44;;;;;;;0.13;0.13;;;1.20;99.90;12.80;163505.00;;;;5016825;28;20227;-76
2023/01/22 00:41:13;;;;;;;0.10;0.10;;;1.20;99.90;12.80;163505.00;;;;5019037;28;20204;-77
2023/01/22 00:43:41;;;;;;;0.10;0.10;;;1.20;99.90;12.80;163505.00;;;;4993869;28;20208;-77
2023/01/22 00:46:13;;;;;;;0.20;0.20;;;1.20;99.90;12.80;163505.00;;;;5014949;28;20207;-78
2023/01/22 00:48:44;;;;;;;0.13;0.13;;;1.20;99.90;12.80;163505.00;;;;5006360;28;20227;-78
2023/01/22 00:51:13;;;;;;;0.13;0.13;;;1.20;99.90;12.80;163505.00;;;;4978686;28;20280;-77
2023/01/22 00:53:42;;;;;;;0.13;0.13;;;1.20;99.90;12.80;163505.00;;;;4996243;28;20668;-77
2023/01/22 00:56:13;;;;;;;0.10;0.10;;;1.20;99.90;12.80;163505.00;;;;5004946;28;20195;-78
2023/01/22 00:58:43;;;;;;;0.20;0.20;;;1.20;99.90;12.80;163505.00;;;;5015345;28;20235;-78
2023/01/22 01:01:14;;;;;;;0.20;0.20;;;1.20;99.90;12.80;163505.00;;;;4998379;28;20584;-77
2023/01/22 01:03:43;;;;;;;0.10;0.10;;;1.20;99.90;12.80;163505.00;;;;5015765;28;20211;-77
2023/01/22 01:06:15;;;;;;;0.10;0.10;;;1.20;99.90;12.80;163505.00;;;;5015462;28;20196;-77
2023/01/22 01:08:48;;;;;;;0.17;0.17;;;1.20;99.90;12.80;163505.00;;;;5015346;28;20199;-77
2023/01/22 01:11:20;;;;;;;0.20;0.20;;;1.20;99.90;12.80;163505.00;;;;4997944;28;20192;-77
2023/01/22 01:13:51;;;;;;;0.10;0.10;;;1.10;99.90;12.80;163505.00;;;;5018256;28;20187;-78
2023/01/22 01:16:23;;;;;;;0.10;0.10;;;1.20;99.90;12.80;163505.00;;;;5017130;28;20180;-77
2023/01/22 01:18:52;;;;;;;0.10;0.10;;;1.10;99.90;12.80;163505.00;;;;5014600;28;20215;-77
2023/01/22 01:21:20;;;;;;;0.10;0.10;;;1.10;99.90;12.80;163505.00;;;;5015305;28;20222;-75
2023/01/22 01:23:48;;;;;;;0.10;0.10;;;1.10;99.90;12.80;163505.00;;;;5030490;28;20278;-76
2023/01/22 01:26:17;;;;;;;0.10;0.10;;;1.20;99.90;12.80;163505.00;;;;4996585;28;20212;-76
2023/01/22 01:28:45;;;;;;;0.10;0.10;;;1.20;99.90;12.80;163505.00;;;;4996582;28;20220;-76
2023/01/22 01:31:16;;;;;;;0.10;0.10;;;1.10;99.90;12.80;163505.00;;;;5015388;28;20176;-76
2023/01/22 01:33:45;;;;;;;0.10;0.10;;;1.10;99.90;12.80;163505.00;;;;5005194;28;20231;-76
2023/01/22 01:36:18;;;;;;;0.10;0.10;;;1.20;99.90;12.80;163505.00;;;;5014636;28;20304;-77
2023/01/22 01:39:06;;;;;;;0.10;0.10;;;1.10;99.90;12.80;163505.00;;;;4997910;28;20712;-77
2023/01/22 01:41:34;;;;;;;0.10;0.10;;;1.20;99.90;12.80;163505.00;;;;5004198;28;20192;-77
2023/01/22 01:44:15;;;;;;;0.10;0.10;;;1.20;99.90;12.80;163505.00;;;;4981214;28;20208;-77
2023/01/22 01:46:49;;;;;;;0.10;0.10;;;1.20;99.90;12.80;163505.00;;;;5013244;28;20195;-77
2023/01/22 01:49:26;;;;;;;0.10;0.10;;;1.20;99.90;12.80;163505.00;;;;4996277;28;20223;-77
2023/01/22 01:52:02;;;;;;;0.10;0.10;;;1.20;99.90;12.80;163505.00;;;;4993481;28;20265;-76
2023/01/22 01:54:31;;;;;;;0.10;0.10;;;1.20;99.90;12.80;163505.00;;;;5013199;28;20203;-79
2023/01/22 01:57:08;;;;;;;0.10;0.10;;;1.20;99.90;12.80;163505.00;;;;5018884;28;20191;-77
2023/01/22 01:59:36;;;;;;;0.10;0.10;;;1.20;99.90;12.80;163505.00;;;;4994635;28;20662;-77
2023/01/22 02:02:05;;;;;;;0.10;0.10;;;1.20;99.90;12.80;163505.00;;;;5006974;28;20246;-76
2023/01/22 02:04:33;;;;;;;0.10;0.10;;;1.20;99.90;12.80;163505.00;;;;5021595;28;20593;-76
2023/01/22 02:07:04;;;;;;;0.10;0.10;;;1.20;99.90;12.80;163505.00;;;;5010753;28;20200;-76
2023/01/22 02:09:33;;;;;;;0.10;0.10;;;1.10;99.90;12.80;163505.00;;;;5006546;28;20683;-76
2023/01/22 02:12:03;;;;;;;0.10;0.10;;;1.20;99.90;12.80;163505.00;;;;5014615;28;20211;-76
2023/01/22 02:14:34;;;;;;;0.10;0.10;;;1.10;99.90;12.80;163505.00;;;;4995608;28;20206;-76
2023/01/22 02:17:10;;;;;;;0.10;0.10;;;1.10;99.90;12.80;163505.00;;;;5010965;28;20199;-76
2023/01/22 02:19:38;;;;;;;0.10;0.10;;;1.10;99.90;12.80;163505.00;;;;5019849;28;20200;-76
2023/01/22 02:22:13;;;;;;;0.10;0.10;;;1.10;99.90;12.80;163505.00;;;;5013596;28;20216;-77
2023/01/22 02:24:41;;;;;;;0.13;0.13;;;1.20;99.90;12.80;163505.00;;;;5013580;28;20195;-77
2023/01/22 02:27:10;;;;;;;0.10;0.10;;;1.10;99.90;12.80;163505.00;;;;4995209;28;20279;-76
2023/01/22 02:29:39;;;;;;;0.10;0.10;;;1.10;99.90;12.80;163505.00;;;;4994987;28;20227;-75
2023/01/22 02:32:10;;;;;;;0.10;0.10;;;1.20;99.90;12.80;163505.00;;;;4997843;28;20298;-76
2023/01/22 02:34:38;;;;;;;0.10;0.10;;;1.20;99.90;12.80;163505.00;;;;4999820;28;20688;-76
2023/01/22 02:37:06;;;;;;;0.10;0.10;;;1.20;99.90;12.80;163505.00;;;;5004606;28;20188;-77
2023/01/22 02:39:36;;;;;;;0.10;0.10;;;1.20;99.90;12.80;163505.00;;;;4987155;28;20214;-76
2023/01/22 02:42:07;;;;;;;0.10;0.10;;;1.20;99.90;12.80;163505.00;;;;4996432;28;20242;-76
2023/01/22 02:44:36;;;;;;;0.20;0.20;;;1.20;99.90;12.80;163505.00;;;;4988549;28;20649;-77
2023/01/22 02:47:06;;;;;;;0.13;0.13;;;1.20;99.90;12.80;163505.00;;;;5014639;28;20200;-77
2023/01/22 02:49:34;;;;;;;0.10;0.10;;;1.20;99.90;12.80;163505.00;;;;4994662;28;20208;-77
2023/01/22 02:52:02;;;;;;;0.20;0.20;;;1.10;99.90;12.80;163505.00;;;;5008878;28;20265;-77
2023/01/22 02:54:31;;;;;;;0.10;0.10;;;1.20;99.90;12.80;163505.00;;;;4999038;28;20219;-77
2023/01/22 02:57:00;;;;;;;0.10;0.10;;;1.20;99.90;12.80;163505.00;;;;5013792;28;20220;-77
2023/01/22 02:59:28;;;;;;;0.10;0.10;;;1.10;99.90;12.80;163505.00;;;;4996061;28;20278;-77
2023/01/22 03:01:57;;;;;;;0.10;0.10;;;1.20;99.90;12.80;163505.00;;;;5002237;28;20195;-76
2023/01/22 03:04:27;;;;;;;0.20;0.20;;;1.20;99.90;12.80;163505.00;;;;5011377;28;20242;-77
2023/01/22 03:06:55;;;;;;;0.10;0.10;;;1.20;99.90;12.80;163505.00;;;;4998162;28;20208;-75
2023/01/22 03:09:27;;;;;;;0.10;0.10;;;1.10;99.90;12.80;163505.00;;;;5003137;28;20261;-76
2023/01/22 03:11:56;;;;;;;0.17;0.17;;;1.10;99.90;12.80;163505.00;;;;4978611;28;20306;-76
2023/01/22 03:22:48;;;;;;;0.10;0.10;;;1.10;99.90;12.80;163505.00;;;;4997726;28;20176;-77
2023/01/22 03:25:16;;;;;;;0.20;0.20;;;1.10;99.90;12.80;163505.00;;;;4994506;28;20195;-76
2023/01/22 03:30:29;;;;;;;0.10;0.10;;;1.20;99.90;12.80;163505.00;;;;4993799;28;20195;-76
2023/01/22 03:32:58;;;;;;;0.10;0.10;;;1.20;99.90;12.80;163505.00;;;;5006045;28;20303;-76
2023/01/22 03:35:26;;;;;;;0.10;0.10;;;1.20;99.90;12.80;163505.00;;;;4994405;28;20247;-76
2023/01/22 03:38:05;;;;;;;0.10;0.10;;;1.20;99.90;12.80;163505.00;;;;4994440;28;20269;-76
2023/01/22 03:40:34;;;;;;;0.10;0.10;;;1.10;99.90;12.80;163505.00;;;;4996247;28;20205;-76
2023/01/22 03:43:02;;;;;;;0.20;0.20;;;1.10;99.90;12.80;163505.00;;;;4989004;28;20262;-77
2023/01/22 03:45:34;;;;;;;0.10;0.10;;;1.00;99.90;12.80;163505.00;;;;5011588;28;20279;-77
2023/01/22 03:48:04;;;;;;;0.10;0.10;;;1.10;99.90;12.80;163505.00;;;;4996748;28;20302;-78
2023/01/22 03:50:37;;;;;;;0.10;0.10;;;1.00;99.90;12.80;163505.00;;;;4992748;28;20204;-76
2023/01/22 03:53:05;;;;;;;0.10;0.10;;;1.00;99.90;12.80;163505.00;;;;4993215;28;20648;-78
2023/01/22 03:55:34;;;;;;;0.10;0.10;;;1.10;99.90;12.80;163505.00;;;;4983681;28;20286;-78
2023/01/22 03:58:02;;;;;;;0.10;0.10;;;1.10;99.90;12.80;163505.00;;;;4998609;28;20227;-78
2023/01/22 04:00:32;;;;;;;0.10;0.10;;;1.10;99.90;12.80;163505.00;;;;5008710;28;20195;-77
2023/01/22 04:03:03;;;;;;;0.10;0.10;;;1.10;99.90;12.80;163505.00;;;;4990536;28;20224;-77
2023/01/22 04:05:37;;;;;;;0.10;0.10;;;1.10;99.90;12.80;163505.00;;;;4992619;28;20200;-77
2023/01/22 04:08:06;;;;;;;0.10;0.10;;;1.10;99.90;12.80;163505.00;;;;4991330;28;20315;-77
2023/01/22 04:10:36;;;;;;;0.10;0.10;;;1.10;99.90;12.80;163505.00;;;;5004237;28;20197;-77
2023/01/22 04:13:04;;;;;;;0.10;0.10;;;1.10;99.90;12.80;163505.00;;;;5003309;28;20621;-77
2023/01/22 04:15:33;;;;;;;0.10;0.10;;;1.20;99.90;12.80;163505.00;;;;4999892;28;20286;-77
2023/01/22 04:18:07;;;;;;;0.10;0.10;;;1.20;99.90;12.80;163505.00;;;;5003334;28;20309;-77
2023/01/22 04:20:51;;;;;;;0.10;0.10;;;1.20;99.90;12.80;163505.00;;;;4997779;28;20196;-77
2023/01/22 04:23:31;;;;;;;0.10;0.10;;;1.20;99.90;12.80;163505.00;;;;5005000;28;20203;-77
2023/01/22 04:26:02;;;;;;;0.10;0.10;;;1.20;99.90;12.80;163505.00;;;;5002155;28;20196;-77
2023/01/22 04:28:30;;;;;;;0.10;0.10;;;1.20;99.90;12.80;163505.00;;;;5004766;28;20282;-77
2023/01/22 04:31:02;;;;;;;0.10;0.10;;;1.20;99.90;12.80;163505.00;;;;5006978;28;20191;-77
2023/01/22 04:33:40;;;;;;;0.10;0.10;;;1.20;99.90;12.80;163505.00;;;;5001627;28;20233;-77
2023/01/22 04:36:14;;;;;;;0.10;0.10;;;1.20;99.90;12.80;163505.00;;;;4994341;28;20632;-77
2023/01/22 04:38:42;;;;;;;0.10;0.10;;;1.20;99.90;12.80;163505.00;;;;5004342;28;20254;-77
2023/01/22 04:41:10;;;;;;;0.10;0.10;;;1.20;99.90;12.80;163505.00;;;;4996862;28;20206;-77
2023/01/22 04:43:38;;;;;;;0.10;0.10;;;1.20;99.90;12.80;163505.00;;;;5005320;28;20450;-76
2023/01/22 04:46:08;;;;;;;0.10;0.10;;;1.20;99.90;12.80;163505.00;;;;4993846;28;20728;-76
2023/01/22 04:48:36;;;;;;;0.10;0.10;;;1.20;99.90;12.80;163505.00;;;;5017132;28;20274;-76
2023/01/22 04:51:05;;;;;;;0.10;0.10;;;1.20;99.90;12.80;163505.00;;;;5002314;28;20486;-76
2023/01/22 04:53:33;;;;;;;0.20;0.20;;;1.20;99.90;12.80;163505.00;;;;4999470;28;20207;-76
2023/01/22 04:56:03;;;;;;;0.10;0.10;;;1.20;99.90;12.80;163505.00;;;;4996864;28;20192;-76
2023/01/22 04:58:32;;;;;;;0.13;0.13;;;1.20;99.90;12.80;163505.00;;;;4999690;28;20311;-76
2023/01/22 05:01:00;;;;;;;0.10;0.10;;;1.20;99.90;12.80;163505.00;;;;4999069;28;20200;-76
2023/01/22 05:03:31;;;;;;;0.10;0.10;;;1.20;99.90;12.80;163505.00;;;;5003709;28;20298;-76
2023/01/22 05:06:03;;;;;;;0.10;0.10;;;1.30;99.90;12.80;163505.00;;;;5002913;28;20200;-76
2023/01/22 05:08:33;;;;;;;0.10;0.10;;;1.20;99.90;12.80;163505.00;;;;4997901;28;20249;-77
2023/01/22 05:11:03;;;;;;;0.10;0.10;;;1.10;99.90;12.80;163505.00;;;;5015110;28;20549;-76
2023/01/22 05:13:42;;;;;;;0.10;0.10;;;1.20;99.90;12.80;163505.00;;;;5006763;28;20602;-75
2023/01/22 05:16:10;;;;;;;0.10;0.10;;;1.20;99.90;12.80;163505.00;;;;4987598;28;20212;-76
2023/01/22 05:18:40;;;;;;;0.10;0.10;;;1.20;99.90;12.80;163505.00;;;;4995198;28;20215;-75
2023/01/22 05:21:08;;;;;;;0.10;0.10;;;1.20;99.90;12.80;163505.00;;;;4994834;28;20199;-76
2023/01/22 05:23:37;;;;;;;0.10;0.10;;;1.20;99.90;12.80;163505.00;;;;5005862;28;20195;-77
2023/01/22 05:26:07;;;;;;;0.10;0.10;;;1.20;99.90;12.80;163505.00;;;;5010018;28;20295;-76
2023/01/22 05:28:49;;;;;;;0.10;0.10;;;1.20;99.90;12.80;163505.00;;;;4996490;28;20219;-76
2023/01/22 05:31:28;;;;;;;0.15;0.15;;;1.20;99.90;12.80;163505.00;;;;5013625;28;20196;-76
2023/01/22 05:34:03;;;;;;;0.10;0.10;;;1.20;99.90;12.80;163505.00;;;;5014577;28;20223;-75
2023/01/22 05:36:31;;;;;;;0.10;0.10;;;1.30;99.90;12.80;163505.00;;;;4991351;28;20290;-77
2023/01/22 05:39:05;;;;;;;0.10;0.10;;;1.20;99.90;12.80;163505.00;;;;4998587;28;20598;-77
2023/01/22 05:41:35;;;;;;;0.10;0.10;;;1.20;99.90;12.80;163505.00;;;;5007003;28;20203;-76
2023/01/22 05:44:04;;;;;;;0.10;0.10;;;1.20;99.90;12.80;163505.00;;;;4997980;28;20210;-76
2023/01/22 05:46:32;;;;;;;0.10;0.10;;;1.20;99.90;12.80;163505.00;;;;5001131;28;20280;-78
2023/01/22 05:49:20;;;;;;;0.10;0.10;;;1.20;99.90;12.80;163505.00;;;;5018207;28;20227;-75
2023/01/22 05:51:49;;;;;;;0.20;0.20;;;1.30;99.90;12.80;163505.00;;;;4994220;28;20192;-76
2023/01/22 05:54:18;;;;;;;0.10;0.10;;;1.30;99.90;12.80;163505.00;;;;4999181;28;20576;-76
2023/01/22 05:56:48;;;;;;;0.10;0.10;;;1.30;99.90;12.80;163505.00;;;;4997030;28;20188;-77
2023/01/22 05:59:16;;;;;;;0.10;0.10;;;1.20;99.90;12.80;163505.00;;;;5002286;28;20230;-77
2023/01/22 06:01:51;;;;;;;0.20;0.20;;;1.20;99.90;12.80;163505.00;;;;5005037;28;20202;-77
2023/01/22 06:04:20;;;;;;;0.20;0.20;;;1.20;99.90;12.80;163505.00;;;;5022506;28;20207;-77
2023/01/22 06:06:49;;;;;;;0.10;0.10;;;1.30;99.90;12.80;163505.00;;;;4997015;28;20715;-77
2023/01/22 06:09:20;;;;;;;0.10;0.10;;;1.30;99.90;12.80;163505.00;;;;5002094;28;20665;-76
2023/01/22 06:11:49;;;;;;;0.20;0.20;;;1.30;99.90;12.80;163505.00;;;;4996441;28;20198;-75
2023/01/22 06:14:17;;;;;;;0.10;0.10;;;1.30;99.90;12.80;163505.00;;;;5004035;28;20227;-76
2023/01/22 06:16:45;;;;;;;0.10;0.10;;;1.30;99.90;12.80;163505.00;;;;5003507;28;20217;-75
2023/01/22 06:19:33;;;;;;;0.10;0.10;;;1.30;99.90;12.80;163505.00;;;;5023642;28;20215;-76
2023/01/22 06:22:01;;;;;;;0.20;0.20;;;1.30;99.90;12.80;163505.00;;;;4993719;28;20616;-76
2023/01/22 06:24:55;;;;;;;0.20;0.20;;;1.30;99.90;12.80;163505.00;;;;5006209;28;20671;-75
2023/01/22 06:27:27;;;;;;;0.20;0.20;;;1.30;99.90;12.80;163505.00;;;;4997170;28;20215;-76
2023/01/22 06:29:59;;;;;;;0.10;0.10;;;1.30;99.90;12.80;163505.00;;;;4991520;28;20230;-77
2023/01/22 06:32:28;;;;;;;0.20;0.20;;;1.20;99.90;12.80;163505.00;;;;4998242;28;20200;-76
2023/01/22 06:35:00;;;;;;;0.20;0.20;;;1.20;99.90;12.80;163505.00;;;;4998036;28;20230;-77
2023/01/22 06:37:28;;;;;;;0.20;0.20;;;1.30;99.90;12.80;163505.00;;;;5015223;28;20604;-76
2023/01/22 06:39:57;;;;;;;0.15;0.15;;;1.30;99.90;12.80;163505.00;;;;4996519;28;20668;-76
2023/01/22 06:42:32;;;;;;;0.10;0.10;;;1.20;99.90;12.80;163505.00;;;;5002479;28;20300;-76
2023/01/22 06:45:00;;;;;;;0.20;0.20;;;1.30;99.90;12.80;163505.00;;;;4992215;28;20231;-76
2023/01/22 06:47:31;;;;;;;0.13;0.13;;;1.30;99.90;12.80;163505.00;;;;4995014;28;20227;-75
2023/01/22 06:50:00;;;;;;;0.20;0.20;;;1.30;99.90;12.80;163505.00;;;;5001389;28;20196;-76
2023/01/22 06:52:28;;;;;;;0.20;0.20;;;1.20;99.90;12.80;163505.00;;;;4999544;28;20199;-76
2023/01/22 06:54:56;;;;;;;0.20;0.20;;;1.20;99.90;12.80;163505.00;;;;5003860;28;20235;-77
2023/01/22 06:57:25;;;;;;;0.10;0.10;;;1.20;99.90;12.80;163505.00;;;;4999289;28;20286;-76
2023/01/22 06:59:54;;;;;;;0.20;0.20;;;1.20;99.90;12.80;163505.00;;;;5001147;28;20325;-76
2023/01/22 07:02:22;;;;;;;0.10;0.10;;;1.20;99.90;12.80;163505.00;;;;5015867;28;20250;-77
2023/01/22 07:04:50;;;;;;;0.20;0.20;;;1.20;99.90;12.80;163505.00;;;;4997727;28;20226;-77
2023/01/22 07:07:19;;;;;;;0.10;0.10;;;1.20;99.90;12.80;163505.00;;;;5013808;28;20191;-76
2023/01/22 07:09:47;;;;;;;0.10;0.10;;;1.10;99.90;12.80;163505.00;;;;5011051;28;20192;-76
2023/01/22 07:12:15;;;;;;;0.10;0.10;;;1.10;99.90;12.80;163505.00;;;;5011092;28;20200;-76
2023/01/22 07:14:43;;;;;;;0.10;0.10;;;1.10;99.90;12.80;163505.00;;;;5020114;28;20203;-76
2023/01/22 07:17:11;;;;;;;0.10;0.10;;;1.10;99.90;12.80;163505.00;;;;5013206;28;20200;-76
2023/01/22 07:19:39;;;;;;;0.10;0.10;;;1.10;99.90;12.80;163505.00;;;;5024868;28;20241;-76
2023/01/22 07:22:07;;;;;;;0.17;0.17;;;1.20;99.90;12.80;163505.00;;;;5011651;28;20207;-76
2023/01/22 07:24:36;;;;;;;0.20;0.20;;;1.20;99.90;12.80;163505.00;;;;5012970;28;20204;-77
2023/01/22 07:27:04;;;;;;;0.10;0.10;;;1.20;99.90;12.80;163505.00;;;;5018481;28;20602;-76
2023/01/22 07:29:32;;;;;;;0.20;0.20;;;1.20;99.90;12.80;163505.00;;;;5040552;28;20187;-76
2023/01/22 07:32:00;;;;;;;0.20;0.20;;;1.30;99.90;12.80;163505.00;;;;5034252;28;20203;-77
2023/01/22 07:34:28;;;;;;;0.10;0.10;;;1.20;99.90;12.80;163505.00;;;;5038646;28;20202;-78
2023/01/22 07:36:56;;;;;;;0.10;0.10;;;1.20;99.90;12.80;163505.00;;;;5031680;28;20227;-77
2023/01/22 07:39:24;;;;;;;0.20;0.20;;;1.20;99.90;12.80;163505.00;;;;5027539;28;20254;-76
2023/01/22 07:41:53;;;;;;;0.20;0.20;;;1.20;99.90;12.80;163505.00;;;;5015569;28;20195;-77
2023/01/22 07:44:21;;;;;;;0.20;0.20;;;1.20;99.90;12.80;163505.00;;;;5030572;28;20192;-77
2023/01/22 07:46:49;;;;;;;0.20;0.20;;;1.20;99.90;12.80;163505.00;;;;5034957;28;20205;-77
2023/01/22 07:49:17;;;;;;;0.10;0.10;;;1.20;99.90;12.80;163505.00;;;;5034232;28;20219;-76
2023/01/22 07:51:45;;;;;;;0.20;0.20;;;1.30;99.90;12.80;163505.00;;;;5019578;28;20193;-77
2023/01/22 07:54:13;;;;;;;0.10;0.10;;;1.20;99.90;12.80;163505.00;;;;5020203;28;20223;-76
2023/01/22 07:56:45;;;;;;;0.13;0.13;;;1.20;99.90;12.80;163505.00;;;;5013690;28;20216;-76
2023/01/22 07:59:14;;;;;;;0.10;0.10;;;1.20;99.90;12.80;163505.00;;;;5016854;28;20232;-77
2023/01/22 08:01:42;;;;;;;0.10;0.10;;;1.30;99.90;12.80;163505.00;;;;5019930;28;20204;-77
2023/01/22 08:04:10;;;;;;;0.10;0.10;;;1.30;99.90;12.80;163505.00;;;;5020532;28;20210;-76
2023/01/22 08:06:38;;;;;;;0.13;0.13;;;1.30;99.90;12.80;163505.00;;;;5022532;28;20199;-76
2023/01/22 08:09:06;;;;;;;0.10;0.10;;;1.20;99.90;12.80;163505.00;;;;5024143;28;20293;-76
2023/01/22 08:11:34;;;;;;;0.13;0.13;;;1.20;99.90;12.80;163505.00;;;;5021043;28;20207;-76
2023/01/22 08:14:02;;;;;;;0.10;0.10;;;1.20;99.90;12.80;163505.00;;;;5019303;28;20204;-75
2023/01/22 08:16:31;;;;;;;0.13;0.13;;;1.20;99.90;12.80;163505.00;;;;5016626;28;20232;-76
2023/01/22 08:18:59;;;;;;;0.10;0.10;;;1.10;99.90;12.80;163505.00;;;;5017351;28;20302;-76
2023/01/22 08:21:27;;;;;;;0.10;0.10;;;1.20;99.90;12.80;163505.00;;;;5014011;28;20254;-76
2023/01/22 08:23:55;;;;;;;0.10;0.10;;;1.30;99.90;12.80;163505.00;;;;5016092;28;20280;-75
2023/01/22 08:26:23;;;;;;;0.10;0.10;;;1.30;99.90;12.80;163505.00;;;;5014608;28;20200;-77
2023/01/22 08:28:51;;;;;;;0.20;0.20;;;1.30;99.90;12.80;163505.00;;;;5013920;28;20869;-77
2023/01/22 08:31:19;;;;;;;0.20;0.20;;;1.30;99.90;12.80;163505.00;;;;5014768;28;20196;-77
2023/01/22 08:33:58;;;;;;;0.10;0.10;;;1.30;99.90;12.80;163505.00;;;;5023144;28;20279;-76
2023/01/22 08:36:27;;;;;;;0.10;0.10;;;1.30;99.90;12.80;163505.00;;;;5020214;28;20211;-79
2023/01/22 08:38:55;;;;;;;0.10;0.10;;;1.30;99.90;12.80;163505.00;;;;5015438;28;20208;-77
2023/01/22 08:41:24;;;;;;;0.10;0.10;;;1.30;99.90;12.80;163505.00;;;;5017708;28;20200;-77
2023/01/22 08:43:52;;;;;;;0.13;0.13;;;1.30;99.90;12.80;163505.00;;;;5019946;28;20195;-77
2023/01/22 08:46:20;;;;;;;0.10;0.10;;;1.30;99.90;12.80;163505.00;;;;5025230;28;20200;-77
2023/01/22 08:48:49;;;;;;;0.13;0.13;;;1.30;99.90;12.80;163505.00;;;;5024810;28;20233;-77
2023/01/22 08:51:21;;;;;;;0.10;0.10;;;1.30;99.90;12.80;163505.00;;;;5016021;28;20200;-77
2023/01/22 08:53:49;;;;;;;0.13;0.13;;;1.30;99.90;12.80;163505.00;;;;5016274;28;20203;-77
2023/01/22 08:56:17;;;;;;;0.20;0.20;;;1.30;99.90;12.80;163505.00;;;;5022893;28;20208;-77
2023/01/22 08:58:49;;;;;;;0.10;0.10;;;1.30;99.90;12.80;163505.00;;;;5016830;28;20223;-77
2023/01/22 09:01:20;;;;;;;0.10;0.10;;;1.30;99.90;12.80;163505.00;;;;5022859;28;20208;-77
2023/01/22 09:03:48;;;;;;;0.10;0.10;;;1.30;99.90;12.80;163505.00;;;;5022585;28;20199;-77
2023/01/22 09:06:17;;;;;;;0.10;0.10;;;1.30;99.90;12.80;163505.00;;;;5017983;28;20223;-77
2023/01/22 09:08:45;;;;;;;0.10;0.10;;;1.30;99.90;12.80;163505.00;;;;5018589;28;20218;-78
2023/01/22 09:11:13;;;;;;;0.10;0.10;;;1.30;99.90;12.80;163505.00;;;;5017310;28;20206;-77
2023/01/22 09:13:41;;;;;;;0.10;0.10;;;1.40;99.90;12.80;163505.00;;;;5024154;28;20192;-78
2023/01/22 09:16:09;;;;;;;0.15;0.15;;;1.40;99.90;12.80;163505.00;;;;5016108;28;20227;-78
2023/01/22 09:18:38;;;;;;;0.10;0.10;;;1.30;99.90;12.80;163505.00;;;;5022942;28;20219;-78
2023/01/22 09:21:07;;;;;;;0.10;0.10;;;1.40;99.90;12.80;163505.00;;;;5018623;28;20218;-77
2023/01/22 09:23:37;;;;;;;0.10;0.10;;;1.40;99.90;12.80;163505.00;;;;5024828;28;20613;-78
2023/01/22 09:26:05;;;;;;;0.10;0.10;;;1.50;99.90;12.80;163505.00;;;;5023420;28;20246;-78
2023/01/22 09:28:33;;;;;;;0.10;0.10;;;1.50;99.90;12.80;163505.00;;;;5021691;28;20274;-78
2023/01/22 09:31:03;;;;;;;0.10;0.10;;;1.50;99.90;12.80;163505.00;;;;5018067;28;20579;-78
2023/01/22 09:33:31;;;;;;;0.10;0.10;;;1.50;99.90;12.80;163505.00;;;;5019063;28;20231;-78
2023/01/22 09:36:08;;;;;;;0.10;0.10;;;1.50;99.90;12.80;163505.00;;;;4993812;28;20270;-78
2023/01/22 09:38:38;;;;;;;0.10;0.10;;;1.50;99.90;12.80;163505.00;;;;5020350;28;20214;-78
2023/01/22 09:41:18;;;;;;;0.10;0.10;;;1.50;99.90;12.80;163505.00;;;;5016386;28;20215;-78
2023/01/22 09:43:51;;;;;;;0.10;0.10;;;1.50;99.90;12.80;163505.00;;;;5017685;28;20741;-78
2023/01/22 09:46:28;;;;;;;0.10;0.10;;;1.50;99.90;12.80;163505.00;;;;5015378;28;20231;-78
2023/01/22 09:49:07;;;;;;;0.10;0.10;;;1.50;99.90;12.80;163505.00;;;;5016268;28;20221;-78
2023/01/22 09:51:35;;;;;;;0.10;0.10;;;1.50;99.90;12.80;163505.00;;;;5011845;28;20199;-78
2023/01/22 09:54:07;;;;;;;0.10;0.10;;;1.50;99.90;12.80;163505.00;;;;5010505;28;20551;-78
2023/01/22 09:56:41;;;;;;;0.10;0.10;;;1.50;99.90;12.80;163505.00;;;;5010866;28;20270;-78
2023/01/22 09:59:16;;;;;;;0.10;0.10;;;1.60;99.90;12.80;163505.00;;;;5013608;28;20224;-78
2023/01/22 10:01:51;;;;;;;0.10;0.10;;;1.60;99.90;12.80;163505.00;;;;5017687;28;20610;-78
2023/01/22 10:04:37;;;;;;;0.10;0.10;;;1.60;99.90;12.80;163505.00;;;;5015697;28;20676;-78
2023/01/22 10:07:16;;;;;;;0.10;0.10;;;1.60;99.90;12.80;163505.00;;;;5014556;28;20574;-78
2023/01/22 10:09:52;;;;;;;0.10;0.10;;;1.60;99.90;12.80;163505.00;;;;5014483;28;20195;-78
2023/01/22 10:12:20;;;;;;;0.10;0.10;;;1.60;99.90;12.80;163505.00;;;;5011883;28;20198;-78
2023/01/22 10:14:50;;;;;;;0.10;0.10;;;1.60;99.90;12.80;163505.00;;;;5016733;28;20600;-78
2023/01/22 10:17:24;;;;;;;0.10;0.10;;;1.50;99.90;12.80;163505.00;;;;5017068;28;20621;-78
2023/01/22 10:19:57;;;;;;;0.10;0.10;;;1.60;99.90;12.80;163505.00;;;;5015051;28;20641;-78
2023/01/22 10:22:27;;;;;;;0.10;0.10;;;1.70;99.90;12.80;163505.00;;;;5013007;28;20200;-78
2023/01/22 10:24:57;;;;;;;0.10;0.10;;;1.70;99.90;12.80;163505.00;;;;5012587;28;20258;-78
2023/01/22 10:27:35;;;;;;;0.10;0.10;;;1.70;99.90;12.80;163505.00;;;;5009302;28;20200;-78
2023/01/22 10:30:18;;;;;;;0.10;0.10;;;1.60;99.90;12.80;163505.00;;;;5014738;28;20192;-78
2023/01/22 10:32:59;;;;;;;0.10;0.10;;;1.60;99.90;12.80;163505.00;;;;5011927;28;20252;-78
2023/01/22 10:35:29;;;;;;;0.10;0.10;;;1.60;99.90;12.80;163505.00;;;;5016812;28;20566;-78
2023/01/22 10:37:59;;;;;;;0.10;0.10;;;1.60;99.90;12.80;163505.00;;;;5010520;28;20638;-78
2023/01/22 10:40:36;;;;;;;0.00;0.00;;;1.60;99.90;12.80;163505.00;;;;5013184;28;20830;-78
2023/01/22 10:43:10;;;;;;;0.10;0.10;;;1.60;99.90;12.80;163505.00;;;;5017644;28;20203;-78
2023/01/22 10:45:49;;;;;;;0.10;0.10;;;1.60;99.90;12.80;163505.00;;;;5018658;28;20558;-78
2023/01/22 10:48:19;;;;;;;0.10;0.10;;;1.60;99.90;12.80;163505.00;;;;5011560;28;20234;-78
2023/01/22 10:50:59;;;;;;;0.10;0.10;;;1.70;99.90;12.80;163505.00;;;;5007631;28;20257;-78
2023/01/22 10:53:32;;;;;;;0.10;0.10;;;1.70;99.90;12.80;163505.00;;;;5006994;28;20615;-78
2023/01/22 10:56:06;;;;;;;0.10;0.10;;;1.70;99.90;12.80;163505.00;;;;5015417;28;20208;-78
2023/01/22 10:58:39;;;;;;;0.10;0.10;;;1.70;99.90;12.80;163505.00;;;;5013268;28;20227;-78
2023/01/22 11:01:27;;;;;;;0.10;0.10;;;1.70;99.90;12.80;163505.00;;;;4992822;28;20291;-78
2023/01/22 11:03:55;;;;;;;0.10;0.10;;;1.70;99.90;12.80;163505.00;;;;5019146;28;20245;-78
2023/01/22 11:06:32;;;;;;;0.20;0.20;;;1.70;99.90;12.80;163505.00;;;;5014160;28;20586;-78
2023/01/22 11:09:07;;;;;;;0.10;0.10;;;1.70;99.90;12.80;163505.00;;;;5010506;28;20219;-78
2023/01/22 11:11:42;;;;;;;0.10;0.10;;;1.80;99.90;12.80;163505.00;;;;5016504;28;20248;-78
2023/01/22 11:14:18;;;;;;;0.10;0.10;;;1.70;99.90;12.80;163505.00;;;;5019288;28;20204;-78
2023/01/22 11:16:53;;;;;;;0.10;0.10;;;1.70;99.90;12.80;163505.00;;;;5016660;28;20201;-78
2023/01/22 11:19:27;;;;;;;0.10;0.10;;;1.80;99.90;12.80;163505.00;;;;5000010;28;20223;-78
2023/01/22 11:22:16;;;;;;;0.10;0.10;;;1.80;99.90;12.80;163505.00;;;;5007828;28;20680;-78